avis per tempestes more information blitzortung!


avis per Pluja more information rain snow radar


Visita la nostra xarxa de llocs de meteo:

Template documentation
and downloads

And another site



Thunderstorms From: 20-07-2018 17:00 Until: 21-07-2018 01:59 warning for: Thunderstorms Level: Yellow info button
Rain From: 20-07-2018 17:00 Until: 21-07-2018 01:59 warning for: Rain Level: Yellow info button

Pagina Historial Weather Underground text

Diari Resum Novembre 10, 2017 Unitats:  Tant    Imperial   Mètric
« Previous Dia
SegĂźent Dia »
Diari Setmana Mensual Anual Personalitzada
  Maxima: Minima: Media:
Temperatura: TemperatureC °F /  -17.8 °C 3.8 °F /  -15.7 °C 10.4 °F /  -12 °C
Punt de rosada: DewpointC °F /  -17.8 °C -1.6 °F /  -18.7 °C 1.6 °F /  -16.9 °C
Humitat: Humidity % 47 % 54 %
Wind Speed: WindSpeedKMH mph /  0 km/h - 3.4 mph /  5.5 km/h
RĂ fegues de vent: WindSpeedGustKMH mph /  0 km/h - -
Vent:- - SSE
Pression baro: PressurehPa in /  0 hPa 1023.9 in /  34669.3 hPa -
Precipitacions: 0.0 in /  0 mm    
Historical Graphs
 
 
Dades de taula per Novembre 10, 2017
Temps Temperatura Punt de rosada Pression baro Vent Wind Speed RĂ fegues de vent Humitat Rainfall Rate (Hourly)
TemperatureC °F /  -17.8 °C DewpointC °F /  -17.8 °C PressurehPa in /  0 hPa Calm     Humidity % HourlyPrecipMM in /  0 mm
00:04 5.1 °F /  -14.9 °C -0.3 °F /  -17.9 °C 1026.0 in /  34740.4 hPa Calm     68 % 0.0 in /  0 mm
00:05 4.3 °F /  -15.4 °C -1.1 °F /  -18.4 °C 1026.0 in /  34740.4 hPa NNE 1.6 mph /  2.6 km/h 3.2 mph /  5.1 km/h 68 % 0.0 in /  0 mm
00:15 4.3 °F /  -15.4 °C -1.1 °F /  -18.4 °C 1026.0 in /  34740.4 hPa NNE 3.2 mph /  5.1 km/h 4.8 mph /  7.7 km/h 68 % 0.0 in /  0 mm
00:25 4.2 °F /  -15.4 °C -1.2 °F /  -18.4 °C 1024.9 in /  34703.1 hPa NNE 1.6 mph /  2.6 km/h 3.2 mph /  5.1 km/h 68 % 0.0 in /  0 mm
00:35 4.1 °F /  -15.5 °C -1.5 °F /  -18.6 °C 1024.9 in /  34703.1 hPa NW 1.6 mph /  2.6 km/h 1.6 mph /  2.6 km/h 67 % 0.0 in /  0 mm
00:45 4.1 °F /  -15.5 °C -1.3 °F /  -18.5 °C 1026.0 in /  34740.4 hPa WNW 1.6 mph /  2.6 km/h 1.6 mph /  2.6 km/h 68 % 0.0 in /  0 mm
00:55 4.0 °F /  -15.6 °C -1.4 °F /  -18.6 °C 1026.0 in /  34740.4 hPa NNW 1.6 mph /  2.6 km/h 3.2 mph /  5.1 km/h 68 % 0.0 in /  0 mm
01:05 4.1 °F /  -15.5 °C -1.3 °F /  -18.5 °C 1026.0 in /  34740.4 hPa NNW 1.6 mph /  2.6 km/h 6.4 mph /  10.3 km/h 68 % 0.0 in /  0 mm
01:15 4.1 °F /  -15.5 °C -1.3 °F /  -18.5 °C 1024.9 in /  34703.1 hPa North 3.2 mph /  5.1 km/h 4.8 mph /  7.7 km/h 68 % 0.0 in /  0 mm
01:25 3.9 °F /  -15.6 °C -1.5 °F /  -18.6 °C 1026.0 in /  34740.4 hPa North 1.6 mph /  2.6 km/h 4.8 mph /  7.7 km/h 68 % 0.0 in /  0 mm
01:35 3.8 °F /  -15.7 °C -1.6 °F /  -18.7 °C 1026.0 in /  34740.4 hPa North 1.6 mph /  2.6 km/h 1.6 mph /  2.6 km/h 68 % 0.0 in /  0 mm
01:45 3.8 °F /  -15.7 °C -1.6 °F /  -18.7 °C 1024.9 in /  34703.1 hPa NNE 3.2 mph /  5.1 km/h 4.8 mph /  7.7 km/h 68 % 0.0 in /  0 mm
01:55 4.1 °F /  -15.5 °C -1.3 °F /  -18.5 °C 1026.0 in /  34740.4 hPa NE 3.2 mph /  5.1 km/h 4.8 mph /  7.7 km/h 68 % 0.0 in /  0 mm
02:05 4.4 °F /  -15.3 °C -1.0 °F /  -18.3 °C 1026.0 in /  34740.4 hPa NNE 1.6 mph /  2.6 km/h 6.4 mph /  10.3 km/h 68 % 0.0 in /  0 mm
02:15 4.7 °F /  -15.2 °C -0.7 °F /  -18.2 °C 1026.0 in /  34740.4 hPa North 1.6 mph /  2.6 km/h 3.2 mph /  5.1 km/h 68 % 0.0 in /  0 mm
02:25 5.0 °F /  -15 °C -0.6 °F /  -18.1 °C 1026.0 in /  34740.4 hPa NNE 4.8 mph /  7.7 km/h 8.0 mph /  12.9 km/h 67 % 0.0 in /  0 mm
02:35 5.6 °F /  -14.7 °C -0.1 °F /  -17.8 °C 1026.0 in /  34740.4 hPa Calm   3.2 mph /  5.1 km/h 67 % 0.0 in /  0 mm
02:45 6.0 °F /  -14.4 °C 0.3 °F /  -17.6 °C 1026.0 in /  34740.4 hPa NE 1.6 mph /  2.6 km/h 3.2 mph /  5.1 km/h 67 % 0.0 in /  0 mm
02:55 6.3 °F /  -14.3 °C 0.4 °F /  -17.6 °C 1026.0 in /  34740.4 hPa NE 1.6 mph /  2.6 km/h 3.2 mph /  5.1 km/h 66 % 0.0 in /  0 mm
03:05 6.7 °F /  -14.1 °C 0.6 °F /  -17.4 °C 1026.0 in /  34740.4 hPa NNE 3.2 mph /  5.1 km/h 4.8 mph /  7.7 km/h 65 % 0.0 in /  0 mm
03:15 6.5 °F /  -14.2 °C 0.2 °F /  -17.7 °C 1027.0 in /  34774.2 hPa NNE 4.8 mph /  7.7 km/h 9.7 mph /  15.6 km/h 64 % 0.0 in /  0 mm
03:25 6.7 °F /  -14.1 °C 0.4 °F /  -17.6 °C 1026.0 in /  34740.4 hPa NNE 1.6 mph /  2.6 km/h 8.0 mph /  12.9 km/h 64 % 0.0 in /  0 mm
03:35 7.1 °F /  -13.8 °C 0.7 °F /  -17.4 °C 1026.0 in /  34740.4 hPa NNE 3.2 mph /  5.1 km/h 9.7 mph /  15.6 km/h 64 % 0.0 in /  0 mm
03:45 7.2 °F /  -13.8 °C 0.6 °F /  -17.4 °C 1026.0 in /  34740.4 hPa NE 4.8 mph /  7.7 km/h 4.8 mph /  7.7 km/h 63 % 0.0 in /  0 mm
03:55 7.8 °F /  -13.4 °C 1.2 °F /  -17.1 °C 1027.0 in /  34774.2 hPa NE 3.2 mph /  5.1 km/h 6.4 mph /  10.3 km/h 63 % 0.0 in /  0 mm
04:10 8.0 °F /  -13.3 °C 1.2 °F /  -17.1 °C 1027.0 in /  34774.2 hPa NE 4.8 mph /  7.7 km/h 11.3 mph /  18.2 km/h 62 % 0.0 in /  0 mm
04:20 8.3 °F /  -13.2 °C 1.4 °F /  -17 °C 1027.0 in /  34774.2 hPa NNE 4.8 mph /  7.7 km/h 4.8 mph /  7.7 km/h 62 % 0.0 in /  0 mm
04:30 8.7 °F /  -12.9 °C 1.6 °F /  -16.9 °C 1027.0 in /  34774.2 hPa NNE 3.2 mph /  5.1 km/h 4.8 mph /  7.7 km/h 61 % 0.0 in /  0 mm
10:38 8.9 °F /  -12.8 °C 1.8 °F /  -16.8 °C 1027.0 in /  34774.2 hPa NNW 5.6 mph /  9 km/h 5.6 mph /  9 km/h 61 % 0.0 in /  0 mm
10:43 9.1 °F /  -12.7 °C 1.9 °F /  -16.7 °C 1027.0 in /  34774.2 hPa NE 5.6 mph /  9 km/h 5.6 mph /  9 km/h 61 % 0.0 in /  0 mm
10:48 8.9 °F /  -12.8 °C 1.6 °F /  -16.9 °C 1027.0 in /  34774.2 hPa ENE 7.4 mph /  11.9 km/h 7.4 mph /  11.9 km/h 60 % 0.0 in /  0 mm
10:53 9.3 °F /  -12.6 °C 1.9 °F /  -16.7 °C 1027.0 in /  34774.2 hPa West 3.7 mph /  6 km/h 3.7 mph /  6 km/h 60 % 0.0 in /  0 mm
10:58 9.5 °F /  -12.5 °C 2.1 °F /  -16.6 °C 1027.0 in /  34774.2 hPa NE 3.7 mph /  6 km/h 3.7 mph /  6 km/h 60 % 0.0 in /  0 mm
11:03 9.8 °F /  -12.3 °C 2.4 °F /  -16.4 °C 1027.0 in /  34774.2 hPa NNE 6.1 mph /  9.8 km/h 6.1 mph /  9.8 km/h 60 % 0.0 in /  0 mm
11:08 9.6 °F /  -12.4 °C 1.9 °F /  -16.7 °C 1027.0 in /  34774.2 hPa NNE 3.7 mph /  6 km/h 3.7 mph /  6 km/h 59 % 0.0 in /  0 mm
11:13 9.6 °F /  -12.4 °C 1.9 °F /  -16.7 °C 1027.0 in /  34774.2 hPa NE 5.6 mph /  9 km/h 5.6 mph /  9 km/h 59 % 0.0 in /  0 mm
11:18 9.8 °F /  -12.3 °C 1.9 °F /  -16.7 °C 1027.0 in /  34774.2 hPa ENE 4.2 mph /  6.8 km/h 4.2 mph /  6.8 km/h 58 % 0.0 in /  0 mm
11:23 9.8 °F /  -12.3 °C 1.9 °F /  -16.7 °C 1027.0 in /  34774.2 hPa ESE 3.7 mph /  6 km/h 3.7 mph /  6 km/h 58 % 0.0 in /  0 mm
11:28 10.1 °F /  -12.2 °C 2.2 °F /  -16.6 °C 1027.0 in /  34774.2 hPa NNE 3.9 mph /  6.3 km/h 3.9 mph /  6.3 km/h 58 % 0.0 in /  0 mm
11:33 10.6 °F /  -11.9 °C 2.7 °F /  -16.3 °C 1027.0 in /  34774.2 hPa NNE 2.3 mph /  3.7 km/h 2.3 mph /  3.7 km/h 58 % 0.0 in /  0 mm
11:38 10.8 °F /  -11.8 °C 2.8 °F /  -16.2 °C 1027.0 in /  34774.2 hPa NNE 3.7 mph /  6 km/h 3.7 mph /  6 km/h 58 % 0.0 in /  0 mm
11:43 10.7 °F /  -11.8 °C 2.5 °F /  -16.4 °C 1027.0 in /  34774.2 hPa NNE 3.7 mph /  6 km/h 3.7 mph /  6 km/h 57 % 0.0 in /  0 mm
11:48 10.8 °F /  -11.8 °C 2.6 °F /  -16.3 °C 1027.0 in /  34774.2 hPa ESE 5.6 mph /  9 km/h 5.6 mph /  9 km/h 57 % 0.0 in /  0 mm
11:53 11.2 °F /  -11.6 °C 3.0 °F /  -16.1 °C 1027.0 in /  34774.2 hPa East 4.7 mph /  7.6 km/h 4.7 mph /  7.6 km/h 57 % 0.0 in /  0 mm
11:58 11.3 °F /  -11.5 °C 3.1 °F /  -16.1 °C 1027.0 in /  34774.2 hPa NE 5.6 mph /  9 km/h 5.6 mph /  9 km/h 57 % 0.0 in /  0 mm
12:03 11.4 °F /  -11.4 °C 3.2 °F /  -16 °C 1027.0 in /  34774.2 hPa NNE 4.2 mph /  6.8 km/h 4.2 mph /  6.8 km/h 57 % 0.0 in /  0 mm
12:08 11.7 °F /  -11.3 °C 3.4 °F /  -15.9 °C 1026.0 in /  34740.4 hPa NNE 3.7 mph /  6 km/h 3.7 mph /  6 km/h 57 % 0.0 in /  0 mm
12:13 11.7 °F /  -11.3 °C 3.2 °F /  -16 °C 1026.0 in /  34740.4 hPa NE 3.7 mph /  6 km/h 3.7 mph /  6 km/h 56 % 0.0 in /  0 mm
12:14 11.7 °F /  -11.3 °C 3.2 °F /  -16 °C 1026.0 in /  34740.4 hPa NE 3.7 mph /  6 km/h 3.7 mph /  6 km/h 56 % 0.0 in /  0 mm
12:19 11.8 °F /  -11.2 °C 3.3 °F /  -15.9 °C 1026.0 in /  34740.4 hPa SSE 3.7 mph /  6 km/h 3.7 mph /  6 km/h 56 % 0.0 in /  0 mm
12:24 12.1 °F /  -11.1 °C 3.6 °F /  -15.8 °C 1026.0 in /  34740.4 hPa West 1.9 mph /  3.1 km/h 1.9 mph /  3.1 km/h 56 % 0.0 in /  0 mm
12:29 12.4 °F /  -10.9 °C 3.8 °F /  -15.7 °C 1026.0 in /  34740.4 hPa NE 3.7 mph /  6 km/h 3.7 mph /  6 km/h 56 % 0.0 in /  0 mm
12:34 12.6 °F /  -10.8 °C 4.1 °F /  -15.5 °C 1026.0 in /  34740.4 hPa NNE 3.7 mph /  6 km/h 3.7 mph /  6 km/h 56 % 0.0 in /  0 mm
12:39 12.7 °F /  -10.7 °C 4.2 °F /  -15.4 °C 1026.0 in /  34740.4 hPa ENE 3.9 mph /  6.3 km/h 3.9 mph /  6.3 km/h 56 % 0.0 in /  0 mm
12:44 12.6 °F /  -10.8 °C 3.6 °F /  -15.8 °C 1026.0 in /  34740.4 hPa ESE 7.4 mph /  11.9 km/h 7.4 mph /  11.9 km/h 54 % 0.0 in /  0 mm
12:49 12.7 °F /  -10.7 °C 3.9 °F /  -15.6 °C 1026.0 in /  34740.4 hPa ENE 3.7 mph /  6 km/h 3.7 mph /  6 km/h 55 % 0.0 in /  0 mm
12:54 12.9 °F /  -10.6 °C 4.1 °F /  -15.5 °C 1026.0 in /  34740.4 hPa East 3.7 mph /  6 km/h 3.7 mph /  6 km/h 55 % 0.0 in /  0 mm
12:59 13.0 °F /  -10.6 °C 4.2 °F /  -15.4 °C 1026.0 in /  34740.4 hPa ENE 5.6 mph /  9 km/h 5.6 mph /  9 km/h 55 % 0.0 in /  0 mm
13:04 13.2 °F /  -10.4 °C 4.3 °F /  -15.4 °C 1026.0 in /  34740.4 hPa ENE 5.6 mph /  9 km/h 5.6 mph /  9 km/h 55 % 0.0 in /  0 mm
13:09 13.2 °F /  -10.4 °C 4.1 °F /  -15.5 °C 1026.0 in /  34740.4 hPa ENE 7.4 mph /  11.9 km/h 7.4 mph /  11.9 km/h 54 % 0.0 in /  0 mm
13:14 13.3 °F /  -10.4 °C 4.2 °F /  -15.4 °C 1026.0 in /  34740.4 hPa NE 7.4 mph /  11.9 km/h 7.4 mph /  11.9 km/h 54 % 0.0 in /  0 mm
13:19 13.4 °F /  -10.3 °C 4.3 °F /  -15.4 °C 1026.0 in /  34740.4 hPa East 5.6 mph /  9 km/h 5.6 mph /  9 km/h 54 % 0.0 in /  0 mm
13:24 13.6 °F /  -10.2 °C 4.2 °F /  -15.4 °C 1026.0 in /  34740.4 hPa SE 5.6 mph /  9 km/h 5.6 mph /  9 km/h 53 % 0.0 in /  0 mm
13:29 13.9 °F /  -10.1 °C 4.4 °F /  -15.3 °C 1026.0 in /  34740.4 hPa ENE 5.0 mph /  8 km/h 5.0 mph /  8 km/h 53 % 0.0 in /  0 mm
13:34 14.0 °F /  -10 °C 4.6 °F /  -15.2 °C 1026.0 in /  34740.4 hPa ESE 3.7 mph /  6 km/h 3.9 mph /  6.3 km/h 53 % 0.0 in /  0 mm
13:39 14.1 °F /  -9.9 °C 4.7 °F /  -15.2 °C 1024.9 in /  34703.1 hPa NNE 5.6 mph /  9 km/h 5.6 mph /  9 km/h 53 % 0.0 in /  0 mm
13:44 14.2 °F /  -9.9 °C 4.7 °F /  -15.2 °C 1024.9 in /  34703.1 hPa NE 3.7 mph /  6 km/h 3.7 mph /  6 km/h 53 % 0.0 in /  0 mm
13:49 14.3 °F /  -9.8 °C 4.8 °F /  -15.1 °C 1024.9 in /  34703.1 hPa NE 7.4 mph /  11.9 km/h 7.4 mph /  11.9 km/h 53 % 0.0 in /  0 mm
13:54 14.3 °F /  -9.8 °C 4.8 °F /  -15.1 °C 1023.9 in /  34669.3 hPa ENE 7.4 mph /  11.9 km/h 7.4 mph /  11.9 km/h 53 % 0.0 in /  0 mm
13:59 14.3 °F /  -9.8 °C 4.6 °F /  -15.2 °C 1023.9 in /  34669.3 hPa NNE 3.7 mph /  6 km/h 3.7 mph /  6 km/h 52 % 0.0 in /  0 mm
14:04 14.5 °F /  -9.7 °C 4.8 °F /  -15.1 °C 1023.9 in /  34669.3 hPa North 4.2 mph /  6.8 km/h 4.2 mph /  6.8 km/h 52 % 0.0 in /  0 mm
14:09 14.7 °F /  -9.6 °C 4.9 °F /  -15.1 °C 1024.9 in /  34703.1 hPa East 3.7 mph /  6 km/h 3.7 mph /  6 km/h 52 % 0.0 in /  0 mm
14:14 14.8 °F /  -9.6 °C 5.1 °F /  -14.9 °C 1024.9 in /  34703.1 hPa East 3.7 mph /  6 km/h 3.7 mph /  6 km/h 52 % 0.0 in /  0 mm
14:19 14.7 °F /  -9.6 °C 4.7 °F /  -15.2 °C 1024.9 in /  34703.1 hPa ENE 3.7 mph /  6 km/h 3.9 mph /  6.3 km/h 51 % 0.0 in /  0 mm
14:24 14.8 °F /  -9.6 °C 5.1 °F /  -14.9 °C 1024.9 in /  34703.1 hPa ENE 3.7 mph /  6 km/h 3.7 mph /  6 km/h 52 % 0.0 in /  0 mm
14:29 14.8 °F /  -9.6 °C 5.1 °F /  -14.9 °C 1024.9 in /  34703.1 hPa NNE 3.7 mph /  6 km/h 3.7 mph /  6 km/h 52 % 0.0 in /  0 mm
14:34 14.8 °F /  -9.6 °C 5.1 °F /  -14.9 °C 1024.9 in /  34703.1 hPa WSW 5.6 mph /  9 km/h 5.6 mph /  9 km/h 52 % 0.0 in /  0 mm
14:39 14.9 °F /  -9.5 °C 4.8 °F /  -15.1 °C 1024.9 in /  34703.1 hPa West 6.1 mph /  9.8 km/h 6.1 mph /  9.8 km/h 51 % 0.0 in /  0 mm
14:44 15.0 °F /  -9.4 °C 4.9 °F /  -15.1 °C 1024.9 in /  34703.1 hPa WNW 7.9 mph /  12.7 km/h 7.9 mph /  12.7 km/h 51 % 0.0 in /  0 mm
14:49 15.0 °F /  -9.4 °C 4.9 °F /  -15.1 °C 1024.9 in /  34703.1 hPa SW 7.4 mph /  11.9 km/h 7.4 mph /  11.9 km/h 51 % 0.0 in /  0 mm
14:54 14.9 °F /  -9.5 °C 4.6 °F /  -15.2 °C 1024.9 in /  34703.1 hPa West 11.1 mph /  17.9 km/h 11.1 mph /  17.9 km/h 50 % 0.0 in /  0 mm
14:59 14.8 °F /  -9.6 °C 4.2 °F /  -15.4 °C 1024.9 in /  34703.1 hPa WNW 9.3 mph /  15 km/h 9.3 mph /  15 km/h 49 % 0.0 in /  0 mm
15:04 14.7 °F /  -9.6 °C 4.4 °F /  -15.3 °C 1024.9 in /  34703.1 hPa WNW 9.5 mph /  15.3 km/h 9.5 mph /  15.3 km/h 50 % 0.0 in /  0 mm
15:09 14.6 °F /  -9.7 °C 3.7 °F /  -15.7 °C 1024.9 in /  34703.1 hPa NNE 11.1 mph /  17.9 km/h 11.1 mph /  17.9 km/h 48 % 0.0 in /  0 mm
15:14 14.5 °F /  -9.7 °C 3.3 °F /  -15.9 °C 1024.9 in /  34703.1 hPa NW 11.1 mph /  17.9 km/h 11.1 mph /  17.9 km/h 47 % 0.0 in /  0 mm
15:19 14.4 °F /  -9.8 °C 3.2 °F /  -16 °C 1024.9 in /  34703.1 hPa WSW 5.6 mph /  9 km/h 5.6 mph /  9 km/h 47 % 0.0 in /  0 mm
15:24 14.3 °F /  -9.8 °C 3.1 °F /  -16.1 °C 1024.9 in /  34703.1 hPa WNW 11.1 mph /  17.9 km/h 11.1 mph /  17.9 km/h 47 % 0.0 in /  0 mm
15:29 14.3 °F /  -9.8 °C 3.1 °F /  -16.1 °C 1024.9 in /  34703.1 hPa WSW 3.7 mph /  6 km/h 3.7 mph /  6 km/h 47 % 0.0 in /  0 mm
15:34 14.2 °F /  -9.9 °C 3.1 °F /  -16.1 °C 1024.9 in /  34703.1 hPa West 11.1 mph /  17.9 km/h 11.1 mph /  17.9 km/h 47 % 0.0 in /  0 mm
15:39 14.1 °F /  -9.9 °C 2.9 °F /  -16.2 °C 1024.9 in /  34703.1 hPa West 6.9 mph /  11.1 km/h 6.9 mph /  11.1 km/h 47 % 0.0 in /  0 mm
15:44 13.9 °F /  -10.1 °C 2.8 °F /  -16.2 °C 1024.9 in /  34703.1 hPa WSW 5.6 mph /  9 km/h 5.6 mph /  9 km/h 47 % 0.0 in /  0 mm
15:49 13.8 °F /  -10.1 °C 2.7 °F /  -16.3 °C 1024.9 in /  34703.1 hPa West 3.7 mph /  6 km/h 3.7 mph /  6 km/h 47 % 0.0 in /  0 mm
15:54 13.8 °F /  -10.1 °C 2.7 °F /  -16.3 °C 1024.9 in /  34703.1 hPa West 3.7 mph /  6 km/h 3.9 mph /  6.3 km/h 47 % 0.0 in /  0 mm
15:59 13.7 °F /  -10.2 °C 2.6 °F /  -16.3 °C 1024.9 in /  34703.1 hPa SW 7.4 mph /  11.9 km/h 7.4 mph /  11.9 km/h 47 % 0.0 in /  0 mm
16:04 13.7 °F /  -10.2 °C 2.6 °F /  -16.3 °C 1026.0 in /  34740.4 hPa WSW 9.3 mph /  15 km/h 9.3 mph /  15 km/h 47 % 0.0 in /  0 mm
16:09 13.7 °F /  -10.2 °C 2.6 °F /  -16.3 °C 1026.0 in /  34740.4 hPa West 4.7 mph /  7.6 km/h   47 % 0.0 in /  0 mm
16:14 13.6 °F /  -10.2 °C 2.5 °F /  -16.4 °C 1026.0 in /  34740.4 hPa North 3.7 mph /  6 km/h 3.7 mph /  6 km/h 47 % 0.0 in /  0 mm
16:19 13.5 °F /  -10.3 °C 2.4 °F /  -16.4 °C 1026.0 in /  34740.4 hPa WNW 4.2 mph /  6.8 km/h 4.2 mph /  6.8 km/h 47 % 0.0 in /  0 mm
16:24 13.5 °F /  -10.3 °C 2.4 °F /  -16.4 °C 1026.0 in /  34740.4 hPa NNW 3.7 mph /  6 km/h 3.7 mph /  6 km/h 47 % 0.0 in /  0 mm
16:29 13.4 °F /  -10.3 °C 2.3 °F /  -16.5 °C 1026.0 in /  34740.4 hPa West 5.6 mph /  9 km/h 5.6 mph /  9 km/h 47 % 0.0 in /  0 mm
16:34 13.3 °F /  -10.4 °C 2.2 °F /  -16.6 °C 1026.0 in /  34740.4 hPa WSW 3.7 mph /  6 km/h 3.7 mph /  6 km/h 47 % 0.0 in /  0 mm
16:39 13.2 °F /  -10.4 °C 2.1 °F /  -16.6 °C 1026.0 in /  34740.4 hPa SW 4.2 mph /  6.8 km/h 4.2 mph /  6.8 km/h 47 % 0.0 in /  0 mm
16:44 13.2 °F /  -10.4 °C 2.1 °F /  -16.6 °C 1026.0 in /  34740.4 hPa West 2.6 mph /  4.2 km/h   47 % 0.0 in /  0 mm
16:49 13.1 °F /  -10.5 °C 2.1 °F /  -16.6 °C 1026.0 in /  34740.4 hPa WSW 1.9 mph /  3.1 km/h   47 % 0.0 in /  0 mm
16:54 13.0 °F /  -10.6 °C 1.9 °F /  -16.7 °C 1026.0 in /  34740.4 hPa SW 4.2 mph /  6.8 km/h 4.2 mph /  6.8 km/h 47 % 0.0 in /  0 mm
16:59 12.8 °F /  -10.7 °C 1.8 °F /  -16.8 °C 1026.0 in /  34740.4 hPa WSW 3.9 mph /  6.3 km/h 3.9 mph /  6.3 km/h 47 % 0.0 in /  0 mm
17:04 12.6 °F /  -10.8 °C 1.9 °F /  -16.7 °C 1024.9 in /  34703.1 hPa WSW 3.9 mph /  6.3 km/h 3.9 mph /  6.3 km/h 48 % 0.0 in /  0 mm
17:09 12.4 °F /  -10.9 °C 1.7 °F /  -16.8 °C 1024.9 in /  34703.1 hPa West 3.7 mph /  6 km/h 3.7 mph /  6 km/h 48 % 0.0 in /  0 mm
17:14 12.3 °F /  -10.9 °C 1.6 °F /  -16.9 °C 1024.9 in /  34703.1 hPa WSW 3.5 mph /  5.6 km/h 3.5 mph /  5.6 km/h 48 % 0.0 in /  0 mm
17:19 12.3 °F /  -10.9 °C 1.6 °F /  -16.9 °C 1026.0 in /  34740.4 hPa SW 1.9 mph /  3.1 km/h   48 % 0.0 in /  0 mm
17:24 12.2 °F /  -11 °C 1.5 °F /  -16.9 °C 1026.0 in /  34740.4 hPa SW 2.6 mph /  4.2 km/h   48 % 0.0 in /  0 mm
17:29 12.0 °F /  -11.1 °C 1.3 °F /  -17.1 °C 1026.0 in /  34740.4 hPa SW 3.7 mph /  6 km/h 3.7 mph /  6 km/h 48 % 0.0 in /  0 mm
17:34 11.8 °F /  -11.2 °C 1.1 °F /  -17.2 °C 1024.9 in /  34703.1 hPa SW 3.9 mph /  6.3 km/h 3.9 mph /  6.3 km/h 48 % 0.0 in /  0 mm
17:39 11.7 °F /  -11.3 °C 1.3 °F /  -17.1 °C 1024.9 in /  34703.1 hPa WSW 1.9 mph /  3.1 km/h 2.3 mph /  3.7 km/h 49 % 0.0 in /  0 mm
17:44 11.7 °F /  -11.3 °C 1.3 °F /  -17.1 °C 1024.9 in /  34703.1 hPa SW 3.7 mph /  6 km/h 3.9 mph /  6.3 km/h 49 % 0.0 in /  0 mm
17:49 11.7 °F /  -11.3 °C 1.3 °F /  -17.1 °C 1024.9 in /  34703.1 hPa WSW 3.7 mph /  6 km/h 3.7 mph /  6 km/h 49 % 0.0 in /  0 mm
17:54 11.7 °F /  -11.3 °C 1.3 °F /  -17.1 °C 1024.9 in /  34703.1 hPa West 3.7 mph /  6 km/h 3.7 mph /  6 km/h 49 % 0.0 in /  0 mm
17:59 11.7 °F /  -11.3 °C 1.3 °F /  -17.1 °C 1024.9 in /  34703.1 hPa WSW 3.7 mph /  6 km/h 3.7 mph /  6 km/h 49 % 0.0 in /  0 mm
18:04 11.7 °F /  -11.3 °C 1.1 °F /  -17.2 °C 1024.9 in /  34703.1 hPa West 3.7 mph /  6 km/h 3.7 mph /  6 km/h 48 % 0.0 in /  0 mm
18:09 11.7 °F /  -11.3 °C 1.1 °F /  -17.2 °C 1024.9 in /  34703.1 hPa West 1.9 mph /  3.1 km/h 1.9 mph /  3.1 km/h 48 % 0.0 in /  0 mm
18:14 11.6 °F /  -11.3 °C 0.9 °F /  -17.3 °C 1024.9 in /  34703.1 hPa Calm     48 % 0.0 in /  0 mm
18:19 11.5 °F /  -11.4 °C 1.2 °F /  -17.1 °C 1024.9 in /  34703.1 hPa Calm     49 % 0.0 in /  0 mm
18:24 11.4 °F /  -11.4 °C 0.8 °F /  -17.3 °C 1024.9 in /  34703.1 hPa West 1.9 mph /  3.1 km/h 1.9 mph /  3.1 km/h 48 % 0.0 in /  0 mm
18:29 11.3 °F /  -11.5 °C 0.9 °F /  -17.3 °C 1024.9 in /  34703.1 hPa Calm     49 % 0.0 in /  0 mm
18:34 11.2 °F /  -11.6 °C 0.9 °F /  -17.3 °C 1026.0 in /  34740.4 hPa Calm     49 % 0.0 in /  0 mm
18:39 11.0 °F /  -11.7 °C 0.7 °F /  -17.4 °C 1026.0 in /  34740.4 hPa Calm     49 % 0.0 in /  0 mm
18:40 11.0 °F /  -11.7 °C 0.7 °F /  -17.4 °C 1026.0 in /  34740.4 hPa Calm     49 % 0.0 in /  0 mm
18:45 10.9 °F /  -11.7 °C 0.6 °F /  -17.4 °C 1026.0 in /  34740.4 hPa Calm     49 % 0.0 in /  0 mm
18:50 10.9 °F /  -11.7 °C 0.6 °F /  -17.4 °C 1026.0 in /  34740.4 hPa NE 2.6 mph /  4.2 km/h 2.6 mph /  4.2 km/h 49 % 0.0 in /  0 mm
18:55 11.0 °F /  -11.7 °C 0.9 °F /  -17.3 °C 1026.0 in /  34740.4 hPa NE 1.6 mph /  2.6 km/h 3.2 mph /  5.1 km/h 50 % 0.0 in /  0 mm
19:00 11.1 °F /  -11.6 °C 0.8 °F /  -17.3 °C 1026.0 in /  34740.4 hPa ENE 1.9 mph /  3.1 km/h   49 % 0.0 in /  0 mm
19:05 11.1 °F /  -11.6 °C 1.1 °F /  -17.2 °C 1026.0 in /  34740.4 hPa Calm     50 % 0.0 in /  0 mm
19:10 10.9 °F /  -11.7 °C 0.9 °F /  -17.3 °C 1026.0 in /  34740.4 hPa Calm     50 % 0.0 in /  0 mm
19:15 10.7 °F /  -11.8 °C 0.7 °F /  -17.4 °C 1026.0 in /  34740.4 hPa West 3.7 mph /  6 km/h 3.7 mph /  6 km/h 50 % 0.0 in /  0 mm
19:20 10.7 °F /  -11.8 °C 0.7 °F /  -17.4 °C 1026.0 in /  34740.4 hPa Calm     50 % 0.0 in /  0 mm
19:25 10.6 °F /  -11.9 °C 0.6 °F /  -17.4 °C 1026.0 in /  34740.4 hPa West 1.9 mph /  3.1 km/h 1.9 mph /  3.1 km/h 50 % 0.0 in /  0 mm
19:30 10.6 °F /  -11.9 °C 0.6 °F /  -17.4 °C 1026.0 in /  34740.4 hPa Calm     50 % 0.0 in /  0 mm
19:35 10.6 °F /  -11.9 °C 0.9 °F /  -17.3 °C 1026.0 in /  34740.4 hPa NE 2.3 mph /  3.7 km/h   51 % 0.0 in /  0 mm
19:40 10.4 °F /  -12 °C 0.7 °F /  -17.4 °C 1026.0 in /  34740.4 hPa ENE 3.7 mph /  6 km/h 3.7 mph /  6 km/h 51 % 0.0 in /  0 mm
19:45 10.3 °F /  -12.1 °C 0.6 °F /  -17.4 °C 1026.0 in /  34740.4 hPa Calm     51 % 0.0 in /  0 mm
19:50 10.4 °F /  -12 °C 0.7 °F /  -17.4 °C 1026.0 in /  34740.4 hPa Calm     51 % 0.0 in /  0 mm
19:55 10.4 °F /  -12 °C 0.7 °F /  -17.4 °C 1026.0 in /  34740.4 hPa Calm     51 % 0.0 in /  0 mm
20:00 10.4 °F /  -12 °C 0.7 °F /  -17.4 °C 1026.0 in /  34740.4 hPa Calm     51 % 0.0 in /  0 mm
20:05 10.3 °F /  -12.1 °C 0.6 °F /  -17.4 °C 1026.0 in /  34740.4 hPa Calm     51 % 0.0 in /  0 mm
20:10 10.0 °F /  -12.2 °C 0.3 °F /  -17.6 °C 1026.0 in /  34740.4 hPa ENE 1.4 mph /  2.3 km/h   51 % 0.0 in /  0 mm
20:15 10.0 °F /  -12.2 °C 0.3 °F /  -17.6 °C 1026.0 in /  34740.4 hPa ENE 1.9 mph /  3.1 km/h 1.9 mph /  3.1 km/h 51 % 0.0 in /  0 mm
20:20 10.0 °F /  -12.2 °C 0.3 °F /  -17.6 °C 1026.0 in /  34740.4 hPa Calm     51 % 0.0 in /  0 mm
20:25 10.0 °F /  -12.2 °C 0.6 °F /  -17.4 °C 1026.0 in /  34740.4 hPa Calm     52 % 0.0 in /  0 mm
20:30 9.9 °F /  -12.3 °C 0.5 °F /  -17.5 °C 1026.0 in /  34740.4 hPa ENE 1.9 mph /  3.1 km/h 1.9 mph /  3.1 km/h 52 % 0.0 in /  0 mm
20:35 9.9 °F /  -12.3 °C 0.5 °F /  -17.5 °C 1026.0 in /  34740.4 hPa Calm     52 % 0.0 in /  0 mm
20:40 9.9 °F /  -12.3 °C 0.5 °F /  -17.5 °C 1026.0 in /  34740.4 hPa WSW 5.6 mph /  9 km/h 5.6 mph /  9 km/h 52 % 0.0 in /  0 mm
20:45 9.8 °F /  -12.3 °C 0.4 °F /  -17.6 °C 1026.0 in /  34740.4 hPa WSW 3.7 mph /  6 km/h 3.7 mph /  6 km/h 52 % 0.0 in /  0 mm
20:50 9.9 °F /  -12.3 °C 0.5 °F /  -17.5 °C 1026.0 in /  34740.4 hPa WSW 3.9 mph /  6.3 km/h 3.9 mph /  6.3 km/h 52 % 0.0 in /  0 mm
20:55 9.9 °F /  -12.3 °C 0.5 °F /  -17.5 °C 1026.0 in /  34740.4 hPa West 3.9 mph /  6.3 km/h 3.9 mph /  6.3 km/h 52 % 0.0 in /  0 mm
21:00 9.8 °F /  -12.3 °C 0.4 °F /  -17.6 °C 1026.0 in /  34740.4 hPa West 3.7 mph /  6 km/h 3.7 mph /  6 km/h 52 % 0.0 in /  0 mm
21:05 9.7 °F /  -12.4 °C 0.3 °F /  -17.6 °C 1026.0 in /  34740.4 hPa West 1.9 mph /  3.1 km/h 1.9 mph /  3.1 km/h 52 % 0.0 in /  0 mm
21:10 9.8 °F /  -12.3 °C 0.4 °F /  -17.6 °C 1026.0 in /  34740.4 hPa West 1.9 mph /  3.1 km/h 1.9 mph /  3.1 km/h 52 % 0.0 in /  0 mm
21:15 9.9 °F /  -12.3 °C 0.5 °F /  -17.5 °C 1026.0 in /  34740.4 hPa West 1.9 mph /  3.1 km/h 1.9 mph /  3.1 km/h 52 % 0.0 in /  0 mm
21:20 9.9 °F /  -12.3 °C 0.5 °F /  -17.5 °C 1026.0 in /  34740.4 hPa Calm     52 % 0.0 in /  0 mm
21:25 9.5 °F /  -12.5 °C 0.1 °F /  -17.7 °C 1026.0 in /  34740.4 hPa ENE 2.6 mph /  4.2 km/h 2.6 mph /  4.2 km/h 52 % 0.0 in /  0 mm
21:30 9.3 °F /  -12.6 °C 0.2 °F /  -17.7 °C 1026.0 in /  34740.4 hPa ENE 1.9 mph /  3.1 km/h 1.9 mph /  3.1 km/h 53 % 0.0 in /  0 mm
21:35 9.1 °F /  -12.7 °C 0.0 °F /  -17.8 °C 1026.0 in /  34740.4 hPa East 1.9 mph /  3.1 km/h 1.9 mph /  3.1 km/h 53 % 0.0 in /  0 mm
21:40 9.0 °F /  -12.8 °C 0.2 °F /  -17.7 °C 1026.0 in /  34740.4 hPa Calm     54 % 0.0 in /  0 mm
21:45 8.9 °F /  -12.8 °C 0.1 °F /  -17.7 °C 1026.0 in /  34740.4 hPa Calm     54 % 0.0 in /  0 mm
21:50 8.7 °F /  -12.9 °C 0.2 °F /  -17.7 °C 1024.9 in /  34703.1 hPa East 1.9 mph /  3.1 km/h 1.9 mph /  3.1 km/h 55 % 0.0 in /  0 mm
21:55 8.6 °F /  -13 °C 0.1 °F /  -17.7 °C 1024.9 in /  34703.1 hPa ENE 3.7 mph /  6 km/h 3.7 mph /  6 km/h 55 % 0.0 in /  0 mm
22:00 8.5 °F /  -13.1 °C 0.2 °F /  -17.7 °C 1024.9 in /  34703.1 hPa Calm     56 % 0.0 in /  0 mm
22:05 8.5 °F /  -13.1 °C 0.2 °F /  -17.7 °C 1026.0 in /  34740.4 hPa Calm     56 % 0.0 in /  0 mm
22:10 8.5 °F /  -13.1 °C 0.2 °F /  -17.7 °C 1026.0 in /  34740.4 hPa Calm     56 % 0.0 in /  0 mm
22:15 8.5 °F /  -13.1 °C 0.2 °F /  -17.7 °C 1026.0 in /  34740.4 hPa NE 2.3 mph /  3.7 km/h 2.3 mph /  3.7 km/h 56 % 0.0 in /  0 mm
22:20 8.4 °F /  -13.1 °C 0.1 °F /  -17.7 °C 1026.0 in /  34740.4 hPa NE 2.3 mph /  3.7 km/h   56 % 0.0 in /  0 mm
22:25 8.2 °F /  -13.2 °C 0.2 °F /  -17.7 °C 1026.0 in /  34740.4 hPa Calm     57 % 0.0 in /  0 mm
22:30 8.2 °F /  -13.2 °C 0.2 °F /  -17.7 °C 1026.0 in /  34740.4 hPa Calm     57 % 0.0 in /  0 mm
22:35 8.2 °F /  -13.2 °C 0.2 °F /  -17.7 °C 1026.0 in /  34740.4 hPa WNW 1.9 mph /  3.1 km/h 2.3 mph /  3.7 km/h 57 % 0.0 in /  0 mm
22:40 8.3 °F /  -13.2 °C 0.3 °F /  -17.6 °C 1026.0 in /  34740.4 hPa WNW 1.9 mph /  3.1 km/h   57 % 0.0 in /  0 mm
22:45 8.1 °F /  -13.3 °C 0.1 °F /  -17.7 °C 1026.0 in /  34740.4 hPa NE 5.6 mph /  9 km/h 5.6 mph /  9 km/h 57 % 0.0 in /  0 mm
22:50 7.8 °F /  -13.4 °C 0.1 °F /  -17.7 °C 1026.0 in /  34740.4 hPa NE 1.9 mph /  3.1 km/h   58 % 0.0 in /  0 mm
22:51 7.9 °F /  -13.4 °C 0.1 °F /  -17.7 °C 1026.0 in /  34740.4 hPa NE 1.9 mph /  3.1 km/h 1.9 mph /  3.1 km/h 58 % 0.0 in /  0 mm
22:56 7.9 °F /  -13.4 °C 0.1 °F /  -17.7 °C 1026.0 in /  34740.4 hPa NE 2.3 mph /  3.7 km/h 2.3 mph /  3.7 km/h 58 % 0.0 in /  0 mm
23:01 7.9 °F /  -13.4 °C 0.1 °F /  -17.7 °C 1026.0 in /  34740.4 hPa NE 1.9 mph /  3.1 km/h   58 % 0.0 in /  0 mm
23:06 7.8 °F /  -13.4 °C 0.1 °F /  -17.7 °C 1024.9 in /  34703.1 hPa WNW 3.7 mph /  6 km/h 3.7 mph /  6 km/h 58 % 0.0 in /  0 mm
23:11 7.7 °F /  -13.5 °C 0.2 °F /  -17.7 °C 1024.9 in /  34703.1 hPa WNW 1.9 mph /  3.1 km/h   59 % 0.0 in /  0 mm
23:16 7.6 °F /  -13.6 °C 0.1 °F /  -17.7 °C 1024.9 in /  34703.1 hPa West 2.3 mph /  3.7 km/h 2.3 mph /  3.7 km/h 59 % 0.0 in /  0 mm
23:21 7.5 °F /  -13.6 °C 0.0 °F /  -17.8 °C 1026.0 in /  34740.4 hPa WSW 3.7 mph /  6 km/h 3.7 mph /  6 km/h 59 % 0.0 in /  0 mm
23:26 7.2 °F /  -13.8 °C -0.3 °F /  -17.9 °C 1026.0 in /  34740.4 hPa WSW 3.7 mph /  6 km/h 3.7 mph /  6 km/h 59 % 0.0 in /  0 mm
23:31 7.2 °F /  -13.8 °C -0.1 °F /  -17.8 °C 1026.0 in /  34740.4 hPa WSW 3.7 mph /  6 km/h 3.7 mph /  6 km/h 60 % 0.0 in /  0 mm
23:36 7.0 °F /  -13.9 °C -0.2 °F /  -17.9 °C 1026.0 in /  34740.4 hPa SW 1.9 mph /  3.1 km/h   60 % 0.0 in /  0 mm
23:41 7.0 °F /  -13.9 °C -0.2 °F /  -17.9 °C 1026.0 in /  34740.4 hPa SW 2.3 mph /  3.7 km/h 2.3 mph /  3.7 km/h 60 % 0.0 in /  0 mm
23:46 7.0 °F /  -13.9 °C -0.2 °F /  -17.9 °C 1026.0 in /  34740.4 hPa SW 3.7 mph /  6 km/h 3.7 mph /  6 km/h 60 % 0.0 in /  0 mm
23:51 7.1 °F /  -13.8 °C -0.2 °F /  -17.9 °C 1026.0 in /  34740.4 hPa West 1.9 mph /  3.1 km/h 1.9 mph /  3.1 km/h 60 % 0.0 in /  0 mm
23:56 7.2 °F /  -13.8 °C -0.1 °F /  -17.8 °C 1026.0 in /  34740.4 hPa West 1.9 mph /  3.1 km/h   60 % 0.0 in /  0 mm
Meteo Sesrovires
Elogis d' Weather Underground - 2 mb

Guio original per  Jim McMurry - jmcmurry@mwt.net Adaptat per a la plantilla per  Wim van der Kuil - Leuven-Template.eu

Trobareu la nostra informacio del temps tambe a:

Weather Underground

AWEKAS